Overview Statistics Trail Chart Weather Telemetry Raw packets
 

This is the latest recevied weather packets stored in our database for station/object K6POO-1. If no packets are shown the sender has not sent any weather packets the latest 10 day(s).

<< 35 36 37 38 39 40 41 >>
Time Temp. Humidity Pressure Rain* Wind** Luminosity Snow
1788447187 17.78° C 81% 1015.3 hPa 0 mm - 177 W/m² -
1788446886 17.78° C 83% 1015.3 hPa 0 mm - 169 W/m² -
1788446582 17.22° C 84% 1015.4 hPa 0 mm - 120 W/m² -
1788446277 17.22° C 87% 1015.5 hPa 0 mm - 162 W/m² -
1788445974 16.67° C 88% 1015.4 hPa 0 mm - 120 W/m² -
1788445669 16.11° C 90% 1015.2 hPa 0 mm - 88 W/m² -
1788445365 15.56° C 91% 1015.1 hPa 0 mm - 64 W/m² -
1788445061 15.56° C 90% 1015.3 hPa 0 mm - 52 W/m² -
1788444756 15.56° C 91% 1015.2 hPa 0 mm - 29 W/m² -
1788444451 15.56° C 91% 1015.2 hPa 0 mm - 28 W/m² -
1788444152 15.56° C 90% 1015.3 hPa 0 mm - 22 W/m² -
1788443848 15.56° C 91% 1015.2 hPa 0 mm - 16 W/m² -
1788443543 15° C 90% 1015.2 hPa 0 mm - 11 W/m² -
1788443241 15° C 90% 1015.3 hPa 0 mm - 7 W/m² -
1788442938 15° C 91% 1015.2 hPa 0 mm - 4 W/m² -
1788442635 15° C 90% 1015.2 hPa 0 mm - 2 W/m² -
1788442332 15° C 90% 1015.1 hPa 0 mm - 1 W/m² -
1788442031 15° C 90% 1015.1 hPa 0 mm - 0 W/m² -
1788441726 15° C 90% 1015.2 hPa 0 mm - 0 W/m² -
1788441421 15.56° C 90% 1015 hPa 0 mm - 0 W/m² -
1788441115 15.56° C 90% 1014.9 hPa 0 mm - 0 W/m² -
1788440810 15.56° C 90% 1015 hPa 0 mm - 0 W/m² -
1788440510 15.56° C 90% 1015.2 hPa 0 mm - 0 W/m² -
1788440208 15.56° C 90% 1015.2 hPa 0 mm - 0 W/m² -
1788439904 15.56° C 89% 1015.1 hPa 0 mm - 0 W/m² -

* Rain latest hour (hover to see other rain measurements)
** Current wind speed in m/s (hover to see current wind gust speed)